Time;durP1;ratioP1;P1;durP2;ratioP2;P2;SDS_P1;SDS_P2;PMS_P1;PMS_P2;Temp;Humidity;BMP_temperature;BMP_pressure;BME280_temperature;BME280_humidity;BME280_pressure;Samples;Min_cycle;Max_cycle;Signal;HPM_P1;HPM_P2
2021/11/17 02:27:47;;;;;;;86.60;40.50;;;;;;;0.91;85.27;100710.54;101754;1330;23409;-67
2021/11/17 02:30:35;;;;;;;84.90;41.30;;;;;;;0.94;85.52;100708.25;101725;1324;22681;-67
2021/11/17 02:33:20;;;;;;;88.20;41.80;;;;;;;0.98;85.55;100703.73;101725;1325;22602;-67
2021/11/17 02:36:09;;;;;;;88.30;42.30;;;;;;;1.02;85.65;100703.16;101716;1324;25474;-67
2021/11/17 02:38:56;;;;;;;91.40;43.40;;;;;;;1.05;85.67;100699.92;101719;1327;23994;-67
2021/11/17 02:41:55;;;;;;;90.90;42.10;;;;;;;1.08;85.82;100704.23;101744;1324;22594;-67
2021/11/17 02:44:40;;;;;;;95.40;44.30;;;;;;;1.10;85.76;100699.95;101734;1327;22718;-67
2021/11/17 02:47:31;;;;;;;120.00;51.40;;;;;;;1.11;85.67;100699.02;101712;1329;24249;-67
2021/11/17 02:50:19;;;;;;;114.90;51.90;;;;;;;1.11;85.51;100694.39;102287;1322;24452;-67
2021/11/17 02:53:03;;;;;;;113.20;49.70;;;;;;;1.11;85.57;100692.19;102375;1319;24606;-67
2021/11/17 02:55:50;;;;;;;100.60;46.80;;;;;;;1.11;85.65;100688.88;102580;1319;25517;-67
2021/11/17 02:58:47;;;;;;;98.80;44.90;;;;;;;1.11;85.71;100690.85;102690;1315;23129;-67
2021/11/17 03:01:41;;;;;;;97.20;42.40;;;;;;;1.14;86.29;100689.09;102658;1312;26870;-67
2021/11/17 03:04:32;;;;;;;92.20;43.80;;;;;;;1.19;86.28;100689.29;102763;1312;22676;-67
2021/11/17 03:07:26;;;;;;;89.70;41.50;;;;;;;1.23;86.46;100688.71;102780;1317;22590;-67
2021/11/17 03:10:15;;;;;;;94.40;42.30;;;;;;;1.26;86.38;100689.01;102664;1313;25596;-67
2021/11/17 03:13:02;;;;;;;92.00;41.60;;;;;;;1.30;86.39;100689.14;102968;1317;22567;-67
2021/11/17 03:15:54;;;;;;;95.10;44.40;;;;;;;1.33;86.36;100689.41;102753;1316;22668;-67
2021/11/17 03:18:42;;;;;;;99.90;42.90;;;;;;;1.34;86.23;100687.83;102758;1313;26385;-67
2021/11/17 03:21:35;;;;;;;100.30;47.20;;;;;;;1.34;85.87;100687.52;102786;1315;22578;-67
2021/11/17 03:24:31;;;;;;;94.00;43.80;;;;;;;1.31;85.59;100689.43;102688;1312;26580;-67
2021/11/17 03:27:16;;;;;;;97.90;45.50;;;;;;;1.27;85.67;100692.76;102626;1312;25551;-67
2021/11/17 03:30:28;;;;;;;103.70;47.80;;;;;;;1.25;85.53;100695.21;102685;1312;24217;-67
2021/11/17 03:33:33;;;;;;;112.80;47.80;;;;;;;1.22;85.40;100695.08;102619;1318;25619;-67
2021/11/17 03:36:28;;;;;;;113.60;49.10;;;;;;;1.20;85.48;100690.08;102286;1318;25342;-67
2021/11/17 03:39:19;;;;;;;128.40;53.70;;;;;;;1.17;85.34;100690.55;102294;1318;23079;-67
2021/11/17 03:42:25;;;;;;;158.40;60.50;;;;;;;1.15;85.45;100685.70;102247;1318;25601;-67
2021/11/17 03:45:28;;;;;;;142.30;59.20;;;;;;;1.12;85.24;100687.70;102326;1318;24234;-67
2021/11/17 03:48:13;;;;;;;128.30;52.50;;;;;;;1.09;85.45;100684.80;102203;1323;22600;-67
2021/11/17 03:51:01;;;;;;;112.70;49.10;;;;;;;1.11;85.51;100691.33;102365;1322;23015;-67
2021/11/17 03:53:51;;;;;;;107.10;48.40;;;;;;;1.11;85.55;100695.80;102392;1323;23991;-67
2021/11/17 03:56:44;;;;;;;128.60;57.30;;;;;;;1.12;85.72;100695.23;102306;1322;25238;-67
2021/11/17 03:59:31;;;;;;;139.20;61.50;;;;;;;1.12;85.86;100685.81;102281;1318;25352;-67
2021/11/17 04:02:25;;;;;;;114.80;50.30;;;;;;;1.13;86.01;100677.85;102411;1326;25665;-67
2021/11/17 04:05:09;;;;;;;111.00;48.70;;;;;;;1.15;86.39;100679.73;102434;1326;22577;-67
2021/11/17 04:07:55;;;;;;;111.70;50.20;;;;;;;1.19;86.50;100682.45;102450;1324;22587;-67
2021/11/17 04:10:53;;;;;;;105.30;50.00;;;;;;;1.22;86.68;100677.16;102342;1318;22720;-67
2021/11/17 04:13:36;;;;;;;108.90;48.60;;;;;;;1.27;86.73;100671.55;102648;1313;24229;-67
2021/11/17 04:16:22;;;;;;;116.50;51.40;;;;;;;1.30;86.86;100663.42;102651;1318;22662;-67
2021/11/17 04:19:05;;;;;;;104.60;47.10;;;;;;;1.34;86.96;100664.17;102633;1319;22609;-67
2021/11/17 04:22:00;;;;;;;109.40;52.00;;;;;;;1.36;87.08;100661.25;102710;1312;25390;-67
2021/11/17 04:24:53;;;;;;;135.10;67.10;;;;;;;1.40;87.06;100663.48;102797;1318;25722;-67
2021/11/17 04:27:43;;;;;;;127.00;64.10;;;;;;;1.44;87.11;100664.08;102697;1320;24316;-67
2021/11/17 04:30:40;;;;;;;113.00;55.80;;;;;;;1.48;87.14;100666.24;102774;1319;25230;-67
2021/11/17 04:33:34;;;;;;;119.00;54.60;;;;;;;1.53;87.15;100659.05;102648;1315;22616;-67
2021/11/17 04:36:19;;;;;;;115.00;54.60;;;;;;;1.55;87.12;100652.27;102324;1318;22655;-67
2021/11/17 04:39:22;;;;;;;116.90;56.60;;;;;;;1.56;87.23;100641.95;102356;1319;22647;-67
2021/11/17 04:42:11;;;;;;;111.40;52.10;;;;;;;1.59;87.29;100646.71;102242;1318;22977;-67
2021/11/17 04:45:05;;;;;;;116.10;54.90;;;;;;;1.62;87.38;100650.15;102310;1324;22753;-67
2021/11/17 04:47:58;;;;;;;111.20;54.40;;;;;;;1.65;87.41;100646.11;102692;1315;22679;-67
2021/11/17 04:50:48;;;;;;;124.70;59.60;;;;;;;1.68;87.43;100644.67;102561;1315;23165;-67
2021/11/17 04:53:39;;;;;;;110.70;50.80;;;;;;;1.69;87.39;100645.21;103595;1300;24217;-61
2021/11/17 04:56:41;;;;;;;106.10;49.40;;;;;;;1.69;87.43;100644.96;103342;1315;22633;-62
2021/11/17 04:59:39;;;;;;;111.50;50.40;;;;;;;1.73;87.61;100642.51;103019;1316;185375;-62
2021/11/17 05:02:22;;;;;;;108.10;52.00;;;;;;;1.76;87.68;100638.84;103454;1314;23929;-62
2021/11/17 05:05:10;;;;;;;110.00;52.00;;;;;;;1.79;87.86;100640.77;103554;1313;25280;-62
2021/11/17 05:07:50;;;;;;;104.80;48.70;;;;;;;1.82;87.71;100642.71;103359;1311;22580;-62
2021/11/17 05:10:37;;;;;;;109.40;51.80;;;;;;;1.84;87.74;100642.70;103367;1311;22571;-62
2021/11/17 05:13:17;;;;;;;107.90;49.50;;;;;;;1.87;87.81;100643.45;103160;1306;25408;-63
2021/11/17 05:16:03;;;;;;;103.10;49.20;;;;;;;1.90;87.84;100640.11;103118;1310;26455;-63
2021/11/17 05:18:43;;;;;;;111.90;50.00;;;;;;;1.92;87.93;100636.30;103233;1312;24311;-62
2021/11/17 05:21:31;;;;;;;111.90;50.60;;;;;;;1.95;87.88;100634.15;103076;1309;22690;-62
2021/11/17 05:24:18;;;;;;;102.20;48.60;;;;;;;1.98;87.91;100633.23;103139;1310;25261;-63
2021/11/17 05:27:01;;;;;;;102.20;51.00;;;;;;;2.02;87.93;100629.89;103117;1309;25434;-62
2021/11/17 05:29:51;;;;;;;106.00;50.70;;;;;;;2.05;87.96;100632.61;103225;1313;22571;-62
2021/11/17 05:32:37;;;;;;;105.20;51.30;;;;;;;2.08;88.04;100632.17;103314;1310;22551;-62
2021/11/17 05:35:20;;;;;;;105.90;48.40;;;;;;;2.10;87.85;100635.70;103135;1314;22635;-62
2021/11/17 05:38:04;;;;;;;107.10;50.40;;;;;;;2.11;88.00;100632.45;103315;1314;25320;-62
2021/11/17 05:40:51;;;;;;;117.10;55.10;;;;;;;2.14;88.00;100632.58;103222;1309;22761;-62
2021/11/17 05:43:34;;;;;;;108.10;53.10;;;;;;;2.17;88.03;100628.69;103184;1313;24476;-62
2021/11/17 05:46:18;;;;;;;112.60;54.20;;;;;;;2.20;88.09;100631.00;103085;1310;22609;-62
2021/11/17 05:49:04;;;;;;;97.80;52.10;;;;;;;2.24;88.08;100632.15;103080;1314;22682;-62
2021/11/17 05:51:57;;;;;;;108.90;52.40;;;;;;;2.26;88.01;100630.55;103191;1309;22582;-62
2021/11/17 05:54:40;;;;;;;103.70;51.40;;;;;;;2.28;88.11;100629.56;103207;1311;23135;-62
2021/11/17 05:57:27;;;;;;;99.50;47.30;;;;;;;2.28;88.20;100629.80;103151;1310;22571;-62
2021/11/17 06:00:10;;;;;;;99.20;47.80;;;;;;;2.29;88.34;100627.10;103074;1310;22583;-63
2021/11/17 06:03:09;;;;;;;103.90;49.70;;;;;;;2.32;88.38;100626.29;103179;1310;22637;-62
2021/11/17 06:05:37;;;;;;;101.40;48.90;;;;;;;2.36;88.32;100621.52;103512;1310;22569;-62
2021/11/17 06:08:04;;;;;;;100.30;48.50;;;;;;;2.39;88.40;100625.23;103158;1312;22612;-62
2021/11/17 06:10:38;;;;;;;100.40;51.10;;;;;;;2.42;88.37;100622.21;103143;1310;24230;-62
2021/11/17 06:13:11;;;;;;;117.10;55.80;;;;;;;2.46;88.42;100622.09;103102;1306;22663;-62
2021/11/17 06:15:44;;;;;;;112.30;53.20;;;;;;;2.50;88.34;100627.30;102836;1310;24348;-63
2021/11/17 06:18:18;;;;;;;111.80;52.50;;;;;;;2.52;88.38;100632.94;103350;1310;23455;-63
2021/11/17 06:20:53;;;;;;;98.40;50.80;;;;;;;2.54;88.24;100636.14;103434;1313;22587;-62
2021/11/17 06:23:28;;;;;;;106.30;53.70;;;;;;;2.54;88.17;100643.94;103374;1310;22650;-63
2021/11/17 06:25:59;;;;;;;111.10;52.40;;;;;;;2.54;88.18;100645.36;103476;1313;22554;-62
2021/11/17 06:28:31;;;;;;;110.30;50.30;;;;;;;2.57;88.27;100643.73;103295;1310;23981;-64
2021/11/17 06:31:03;;;;;;;109.80;54.30;;;;;;;2.60;88.18;100647.72;103329;1313;24282;-62
2021/11/17 06:33:35;;;;;;;103.40;50.80;;;;;;;2.61;88.17;100654.95;103114;1313;22573;-63
2021/11/17 06:36:06;;;;;;;106.20;50.80;;;;;;;2.63;88.29;100654.84;103068;1309;22590;-61
2021/11/17 06:38:37;;;;;;;110.40;55.00;;;;;;;2.65;88.26;100656.08;103090;1306;22551;-62
2021/11/17 06:41:08;;;;;;;103.00;52.90;;;;;;;2.67;88.32;100656.04;103123;1312;26543;-62
2021/11/17 06:43:39;;;;;;;110.50;56.50;;;;;;;2.67;88.22;100655.72;103253;1311;22576;-62
2021/11/17 06:46:10;;;;;;;114.50;54.80;;;;;;;2.69;88.30;100663.58;103083;1313;22632;-64
2021/11/17 06:48:41;;;;;;;106.30;54.10;;;;;;;2.69;88.24;100662.80;103278;1306;22562;-61
2021/11/17 06:51:12;;;;;;;114.80;56.40;;;;;;;2.71;88.32;100662.45;103120;1310;22663;-63
2021/11/17 06:53:42;;;;;;;106.60;56.40;;;;;;;2.73;88.32;100663.35;103662;1306;22605;-62
2021/11/17 06:56:17;;;;;;;113.70;55.00;;;;;;;2.73;88.19;100659.96;103439;1313;22572;-63
2021/11/17 06:58:48;;;;;;;102.50;54.30;;;;;;;2.75;88.24;100657.35;103951;1307;23001;-62
2021/11/17 07:01:22;;;;;;;113.60;58.90;;;;;;;2.76;88.34;100661.66;103601;1306;22580;-63
2021/11/17 07:03:52;;;;;;;118.90;60.80;;;;;;;2.78;88.38;100662.73;103499;1307;22587;-62
2021/11/17 07:06:23;;;;;;;111.70;55.50;;;;;;;2.80;88.33;100663.17;102758;1309;28973;-63
2021/11/17 07:08:54;;;;;;;161.10;77.90;;;;;;;2.82;88.45;100665.75;103116;1309;22621;-62
2021/11/17 07:11:25;;;;;;;149.80;71.80;;;;;;;2.85;88.43;100667.60;103252;1309;23196;-62
2021/11/17 07:13:56;;;;;;;122.00;61.40;;;;;;;2.88;88.31;100669.05;103279;1315;24061;-63
2021/11/17 07:16:27;;;;;;;116.70;55.10;;;;;;;2.90;88.43;100673.43;103676;1317;25583;-62
2021/11/17 07:18:58;;;;;;;108.30;54.70;;;;;;;2.90;88.29;100675.23;103332;1309;25325;-62
2021/11/17 07:21:29;;;;;;;106.10;52.50;;;;;;;2.92;88.37;100675.13;103149;1310;22816;-63
2021/11/17 07:24:01;;;;;;;112.60;53.60;;;;;;;2.94;88.35;100677.54;103066;1315;22665;-62
2021/11/17 07:26:32;;;;;;;95.70;49.80;;;;;;;2.97;88.42;100671.84;103272;1316;22577;-62
2021/11/17 07:29:03;;;;;;;97.50;50.10;;;;;;;2.99;88.49;100672.59;103276;1317;25684;-62
2021/11/17 07:31:34;;;;;;;106.90;50.80;;;;;;;3.00;88.50;100675.32;103385;1309;22605;-63
2021/11/17 07:34:06;;;;;;;108.40;52.60;;;;;;;3.03;88.40;100675.83;103378;1309;25467;-62
2021/11/17 07:36:37;;;;;;;107.40;52.10;;;;;;;3.06;88.53;100678.55;103463;1309;22605;-62
2021/11/17 07:39:13;;;;;;;101.70;49.70;;;;;;;3.08;88.55;100678.42;103481;1313;22637;-62
2021/11/17 07:41:46;;;;;;;109.00;50.10;;;;;;;3.11;88.61;100679.58;103497;1309;22567;-63
2021/11/17 07:44:17;;;;;;;116.00;54.20;;;;;;;3.14;88.68;100680.31;103517;1310;22729;-62
2021/11/17 07:46:51;;;;;;;109.70;52.40;;;;;;;3.16;88.53;100683.66;103518;1316;25494;-62
2021/11/17 07:49:23;;;;;;;103.10;51.60;;;;;;;3.18;88.46;100687.17;103544;1316;22577;-62
2021/11/17 07:51:55;;;;;;;104.60;49.20;;;;;;;3.21;88.51;100684.69;103464;1315;22551;-62
2021/11/17 07:54:28;;;;;;;103.10;49.10;;;;;;;3.25;88.78;100677.85;103600;1314;24214;-62
2021/11/17 07:57:03;;;;;;;99.80;48.60;;;;;;;3.27;88.75;100681.68;103495;1309;22577;-63
2021/11/17 07:59:35;;;;;;;97.20;48.70;;;;;;;3.29;88.56;100683.61;103811;1316;22574;-63
2021/11/17 08:02:09;;;;;;;102.10;49.80;;;;;;;3.34;88.74;100678.27;103445;1316;26537;-62
2021/11/17 08:04:42;;;;;;;109.00;52.20;;;;;;;3.37;88.79;100678.54;103431;1314;22587;-62
2021/11/17 08:07:14;;;;;;;110.60;51.80;;;;;;;3.39;88.77;100678.10;103746;1309;22754;-63
2021/11/17 08:09:47;;;;;;;113.60;55.20;;;;;;;3.41;88.80;100683.73;103489;1316;27765;-63
2021/11/17 08:12:18;;;;;;;115.90;57.20;;;;;;;3.44;88.83;100681.71;103647;1312;22803;-63
2021/11/17 08:14:49;;;;;;;113.20;57.60;;;;;;;3.48;88.94;100687.39;103512;1314;22587;-63
2021/11/17 08:17:20;;;;;;;113.90;54.50;;;;;;;3.51;88.95;100688.86;103148;1309;25332;-63
2021/11/17 08:19:52;;;;;;;109.00;52.20;;;;;;;3.54;88.80;100690.23;103553;1316;22582;-63
2021/11/17 08:22:23;;;;;;;95.90;48.90;;;;;;;3.58;88.86;100693.15;103942;1309;22563;-63
2021/11/17 08:24:55;;;;;;;99.70;49.30;;;;;;;3.59;88.78;100691.31;103569;1309;24422;-63
2021/11/17 08:27:26;;;;;;;95.10;46.50;;;;;;;3.62;88.81;100695.13;103663;1314;22587;-63
2021/11/17 08:29:58;;;;;;;103.10;49.10;;;;;;;3.66;88.98;100697.10;103614;1316;22666;-63
2021/11/17 08:32:30;;;;;;;91.90;47.60;;;;;;;3.71;89.07;100695.99;103683;1314;22631;-63
2021/11/17 08:35:01;;;;;;;103.70;49.90;;;;;;;3.75;89.05;100699.23;103787;1318;25245;-63
2021/11/17 08:37:32;;;;;;;99.10;49.20;;;;;;;3.80;89.11;100697.09;103633;1315;22577;-63
2021/11/17 08:40:09;;;;;;;104.00;49.70;;;;;;;3.85;89.09;100698.91;103943;1316;25857;-63
2021/11/17 08:42:41;;;;;;;101.50;50.90;;;;;;;3.90;89.16;100700.80;103639;1314;22654;-63
2021/11/17 08:45:14;;;;;;;98.90;54.60;;;;;;;3.96;89.31;100700.58;103808;1316;24232;-63
2021/11/17 08:47:46;;;;;;;98.20;51.80;;;;;;;4.03;89.34;100705.90;103818;1316;24333;-63
2021/11/17 08:50:20;;;;;;;113.80;60.00;;;;;;;4.08;89.40;100708.39;103706;1317;25278;-63
2021/11/17 08:52:52;;;;;;;113.50;58.70;;;;;;;4.13;89.27;100707.92;103455;1318;22661;-63
2021/11/17 08:55:25;;;;;;;108.40;58.50;;;;;;;4.19;89.21;100706.08;103600;1313;22584;-63
2021/11/17 08:57:57;;;;;;;102.90;53.40;;;;;;;4.24;89.23;100709.47;103533;1315;24013;-63
2021/11/17 09:00:30;;;;;;;104.00;54.70;;;;;;;4.28;89.18;100712.14;103651;1316;25248;-63
2021/11/17 09:03:05;;;;;;;115.40;60.30;;;;;;;4.32;89.34;100711.73;103570;1315;24072;-64
2021/11/17 09:05:41;;;;;;;118.50;60.90;;;;;;;4.37;89.32;100712.02;104045;1316;24234;-63
2021/11/17 09:08:14;;;;;;;112.40;59.20;;;;;;;4.41;89.40;100713.53;103781;1317;22895;-63
2021/11/17 09:10:49;;;;;;;107.80;55.40;;;;;;;4.45;89.44;100714.46;103763;1316;22599;-63
2021/11/17 09:13:21;;;;;;;104.10;54.30;;;;;;;4.51;89.53;100717.75;104343;1316;25249;-63
2021/11/17 09:15:54;;;;;;;105.60;57.20;;;;;;;4.54;89.33;100718.08;103827;1315;25315;-63
2021/11/17 09:18:28;;;;;;;107.00;54.30;;;;;;;4.58;89.41;100718.63;103825;1316;22586;-63
2021/11/17 09:21:01;;;;;;;102.40;52.10;;;;;;;4.62;89.34;100719.34;103766;1309;24267;-63
2021/11/17 09:23:32;;;;;;;101.60;52.90;;;;;;;4.67;89.27;100720.17;103770;1313;22590;-62
2021/11/17 09:26:05;;;;;;;108.00;51.30;;;;;;;4.71;89.36;100717.30;103875;1319;25463;-62
2021/11/17 09:28:37;;;;;;;89.90;46.80;;;;;;;4.77;89.36;100719.02;103785;1316;23180;-62
2021/11/17 09:31:09;;;;;;;96.90;50.00;;;;;;;4.81;89.37;100720.50;104016;1316;24239;-63
2021/11/17 09:33:40;;;;;;;91.60;46.90;;;;;;;4.86;89.43;100724.10;103569;1315;22637;-63
2021/11/17 09:36:12;;;;;;;92.10;48.40;;;;;;;4.90;89.25;100722.12;103741;1316;25398;-63
2021/11/17 09:38:44;;;;;;;91.60;47.10;;;;;;;4.95;89.20;100725.73;103669;1316;22563;-62
2021/11/17 09:41:17;;;;;;;87.00;45.40;;;;;;;4.99;89.24;100726.98;103600;1316;25395;-63
2021/11/17 09:43:51;;;;;;;97.70;48.40;;;;;;;5.04;89.20;100728.14;103543;1315;22783;-62
2021/11/17 09:46:25;;;;;;;91.60;45.90;;;;;;;5.08;89.18;100727.48;103741;1316;26520;-63
2021/11/17 09:48:59;;;;;;;94.30;48.00;;;;;;;5.11;89.08;100727.91;103720;1315;22734;-62
2021/11/17 09:51:34;;;;;;;84.70;43.80;;;;;;;5.14;89.01;100728.32;103615;1316;22682;-63
2021/11/17 09:54:14;;;;;;;85.70;43.90;;;;;;;5.17;88.98;100732.11;103954;1310;23954;-63
2021/11/17 09:56:48;;;;;;;87.20;46.10;;;;;;;5.20;88.91;100733.05;103796;1316;22567;-63
2021/11/17 09:59:21;;;;;;;82.70;43.00;;;;;;;5.24;88.95;100728.70;103642;1310;23793;-62
2021/11/17 10:01:57;;;;;;;89.20;43.90;;;;;;;5.27;88.99;100723.66;103815;1316;24241;-62
2021/11/17 10:04:33;;;;;;;87.50;44.70;;;;;;;5.29;88.89;100719.73;103961;1315;22613;-62
2021/11/17 10:13:18;;;;;;;104.70;52.50;;;;;;;5.40;88.93;100718.27;103586;1313;22857;-62
2021/11/17 10:15:52;;;;;;;94.40;47.20;;;;;;;5.44;88.96;100712.33;103647;1316;24239;-62
2021/11/17 10:18:36;;;;;;;88.60;47.40;;;;;;;5.46;88.86;100711.95;103543;1315;22582;-62
2021/11/17 10:21:13;;;;;;;97.60;48.40;;;;;;;5.49;88.85;100707.85;103486;1316;22570;-62
2021/11/17 10:24:00;;;;;;;90.00;45.30;;;;;;;5.52;88.86;100708.89;103605;1316;23057;-63
2021/11/17 10:26:35;;;;;;;98.50;49.40;;;;;;;5.53;88.65;100711.55;103621;1313;24261;-62
2021/11/17 10:29:24;;;;;;;96.30;49.90;;;;;;;5.55;88.61;100711.34;104036;1313;26530;-63
2021/11/17 10:31:59;;;;;;;88.70;48.70;;;;;;;5.57;88.60;100711.05;103505;1316;22991;-63
2021/11/17 10:34:33;;;;;;;97.10;49.40;;;;;;;5.59;88.32;100709.95;103701;1315;23042;-63
2021/11/17 10:37:13;;;;;;;87.70;47.80;;;;;;;5.62;88.33;100705.61;103777;1310;24352;-62
2021/11/17 10:39:50;;;;;;;91.70;45.90;;;;;;;5.65;88.40;100701.65;103559;1309;24839;-62
2021/11/17 10:42:35;;;;;;;90.60;46.20;;;;;;;5.68;88.25;100699.05;103534;1312;22549;-62
2021/11/17 10:45:26;;;;;;;99.50;45.10;;;;;;;5.71;88.25;100701.18;103691;1316;22590;-62
2021/11/17 10:47:58;;;;;;;87.80;46.10;;;;;;;5.74;88.10;100697.39;103435;1310;24283;-62
2021/11/17 10:50:32;;;;;;;89.60;46.80;;;;;;;5.78;88.10;100692.48;103861;1316;22599;-62
2021/11/17 10:53:05;;;;;;;85.90;44.10;;;;;;;5.83;88.21;100693.94;103731;1315;25360;-63
2021/11/17 10:55:40;;;;;;;84.70;45.70;;;;;;;5.87;88.29;100692.52;103759;1314;25557;-62
2021/11/17 10:58:14;;;;;;;85.10;40.90;;;;;;;5.90;88.20;100693.45;103784;1314;22624;-62
2021/11/17 11:00:49;;;;;;;89.20;44.50;;;;;;;5.95;88.33;100687.09;103788;1316;22596;-63
2021/11/17 11:03:23;;;;;;;106.50;52.60;;;;;;;5.98;88.20;100684.27;103847;1310;25943;-63
2021/11/17 11:05:59;;;;;;;102.80;53.60;;;;;;;6.02;88.18;100683.23;103612;1314;22578;-63
2021/11/17 11:08:35;;;;;;;84.50;44.10;;;;;;;6.05;87.94;100678.71;103576;1316;22574;-63
2021/11/17 11:11:07;;;;;;;86.40;45.10;;;;;;;6.07;87.89;100679.98;103600;1314;22567;-63
2021/11/17 11:13:44;;;;;;;80.70;42.60;;;;;;;6.09;87.88;100679.62;103495;1309;22588;-63
2021/11/17 11:16:17;;;;;;;94.00;48.80;;;;;;;6.13;87.91;100679.38;103405;1316;22654;-63
2021/11/17 11:19:17;;;;;;;93.20;46.80;;;;;;;6.16;88.06;100677.38;103598;1309;22555;-64
2021/11/17 11:24:50;;;;;;;98.50;50.60;;;;;;;6.26;87.99;100669.71;100101;1350;545109;-63
2021/11/17 11:27:36;;;;;;;98.70;53.60;;;;;;;6.28;87.86;100669.75;102851;1322;22658;-63
2021/11/17 11:30:46;;;;;;;87.70;46.60;;;;;;;6.31;87.87;100670.94;102713;1321;25525;-63
2021/11/17 11:33:35;;;;;;;88.00;49.30;;;;;;;6.35;87.78;100673.67;102658;1321;24249;-63
2021/11/17 11:36:32;;;;;;;91.90;49.10;;;;;;;6.37;87.81;100671.15;102613;1321;24243;-62
2021/11/17 11:39:33;;;;;;;111.10;56.80;;;;;;;6.41;87.91;100665.80;103011;1317;169590;-63
2021/11/17 11:42:23;;;;;;;136.90;69.30;;;;;;;6.47;88.02;100662.00;103154;1310;22581;-66
2021/11/17 11:44:58;;;;;;;154.60;78.00;;;;;;;6.50;88.04;100655.38;103311;1310;22580;-64
2021/11/17 11:47:51;;;;;;;209.10;97.90;;;;;;;6.54;88.03;100650.69;103467;1318;24426;-64
2021/11/17 11:50:59;;;;;;;188.20;93.30;;;;;;;6.58;87.98;100643.44;103570;1316;22691;-63
2021/11/17 11:54:06;;;;;;;168.10;81.70;;;;;;;6.63;87.99;100635.77;103435;1310;25418;-63
2021/11/17 11:56:51;;;;;;;167.70;85.50;;;;;;;6.67;88.03;100631.90;103726;1313;26570;-59
2021/11/17 11:59:27;;;;;;;145.10;76.30;;;;;;;6.72;88.06;100632.55;104929;1312;23642;-63
2021/11/17 12:02:12;;;;;;;185.20;93.70;;;;;;;6.76;88.11;100635.96;103586;1310;25399;-61
2021/11/17 12:04:48;;;;;;;149.30;79.20;;;;;;;6.81;88.05;100639.39;103665;1315;25436;-61
2021/11/17 12:07:21;;;;;;;122.90;66.20;;;;;;;6.85;87.92;100633.57;103663;1312;22561;-62
2021/11/17 12:10:01;;;;;;;110.00;64.20;;;;;;;6.88;87.97;100632.34;104115;1312;22690;-62
2021/11/17 12:12:34;;;;;;;134.60;69.40;;;;;;;6.92;87.84;100629.84;103478;1312;24300;-59
2021/11/17 12:15:26;;;;;;;136.00;66.30;;;;;;;6.96;87.95;100632.95;103785;1315;22612;-62
2021/11/17 12:18:18;;;;;;;113.70;57.60;;;;;;;7.00;88.02;100634.02;103526;1310;22583;-60
2021/11/17 12:20:52;;;;;;;104.90;52.90;;;;;;;7.03;87.94;100633.91;103568;1312;22611;-62
2021/11/17 12:23:28;;;;;;;75.40;40.80;;;;;;;7.04;87.64;100632.06;103908;1316;25411;-61
2021/11/17 12:26:08;;;;;;;82.20;42.40;;;;;;;7.04;86.96;100626.11;103425;1310;25805;-62
2021/11/17 12:28:48;;;;;;;71.60;36.20;;;;;;;7.07;86.87;100632.39;103434;1316;25390;-61
2021/11/17 12:31:25;;;;;;;68.70;33.50;;;;;;;7.08;86.54;100632.48;103469;1315;22558;-61
2021/11/17 12:34:00;;;;;;;64.60;33.80;;;;;;;7.09;86.02;100633.80;103448;1310;25041;-60
2021/11/17 12:36:33;;;;;;;71.10;34.40;;;;;;;7.10;85.79;100632.59;102743;1317;22608;-59
2021/11/17 12:39:16;;;;;;;66.90;34.50;;;;;;;7.11;85.79;100630.89;102691;1318;22583;-61
2021/11/17 12:41:53;;;;;;;61.20;31.70;;;;;;;7.11;85.19;100635.08;102914;1310;24326;-60
2021/11/17 12:44:32;;;;;;;70.00;35.60;;;;;;;7.13;85.03;100636.55;102859;1316;22632;-59
2021/11/17 12:47:08;;;;;;;68.40;35.90;;;;;;;7.14;85.06;100633.41;102756;1310;25467;-60
2021/11/17 12:49:44;;;;;;;81.70;42.90;;;;;;;7.15;84.92;100633.05;102861;1312;22723;-59
2021/11/17 12:52:19;;;;;;;79.00;41.70;;;;;;;7.16;84.81;100639.61;102793;1313;25371;-60
2021/11/17 12:54:54;;;;;;;117.60;64.50;;;;;;;7.17;84.62;100638.16;102912;1316;25285;-60
2021/11/17 12:57:28;;;;;;;82.10;40.90;;;;;;;7.17;84.35;100640.30;103053;1316;23974;-60
2021/11/17 13:00:22;;;;;;;76.70;36.00;;;;;;;7.16;84.25;100639.05;102829;1317;22580;-59
2021/11/17 13:02:58;;;;;;;67.00;33.60;;;;;;;7.15;83.91;100635.99;102683;1312;24270;-60
2021/11/17 13:05:32;;;;;;;62.40;31.80;;;;;;;7.14;83.77;100635.30;102747;1312;24309;-60
2021/11/17 13:08:11;;;;;;;63.50;31.60;;;;;;;7.13;83.58;100635.73;103210;1317;24824;-60
2021/11/17 13:10:47;;;;;;;62.30;30.00;;;;;;;7.13;83.26;100637.97;103120;1312;26037;-62
2021/11/17 13:13:22;;;;;;;60.60;29.00;;;;;;;7.11;83.04;100634.13;102833;1309;22592;-60
2021/11/17 13:16:06;;;;;;;64.10;31.80;;;;;;;7.11;83.30;100632.40;103354;1308;22734;-60
2021/11/17 13:18:53;;;;;;;73.40;41.30;;;;;;;7.10;83.16;100630.91;103166;1314;25381;-60
2021/11/17 13:21:34;;;;;;;68.00;33.00;;;;;;;7.09;82.95;100632.95;103475;1307;22587;-60
2021/11/17 13:24:07;;;;;;;;;;;;;;;7.08;83.09;100631.22;103572;1308;22533;-59
2021/11/17 13:26:41;;;;;;;61.90;29.60;;;;;;;7.07;83.00;100631.67;103189;1313;22596;-58
2021/11/17 13:29:25;;;;;;;72.50;33.70;;;;;;;7.07;83.11;100631.42;103480;1308;23163;-59
2021/11/17 13:32:11;;;;;;;71.40;33.20;;;;;;;7.06;83.04;100634.61;103077;1312;22700;-61
2021/11/17 13:34:44;;;;;;;64.70;31.20;;;;;;;7.06;83.07;100632.66;102999;1309;22568;-57
2021/11/17 13:37:26;;;;;;;68.20;33.30;;;;;;;7.05;82.97;100635.54;103362;1308;24481;-58
2021/11/17 13:39:59;;;;;;;67.30;31.80;;;;;;;7.04;82.85;100632.46;103273;1308;23934;-59
2021/11/17 13:42:31;;;;;;;75.40;35.50;;;;;;;7.04;82.82;100632.48;103223;1309;25455;-59
2021/11/17 13:45:05;;;;;;;110.50;58.80;;;;;;;7.03;82.57;100633.39;103599;1312;24378;-59
2021/11/17 13:47:37;;;;;;;91.70;47.20;;;;;;;7.01;82.38;100633.36;103906;1313;22567;-58
2021/11/17 13:50:12;;;;;;;72.80;36.40;;;;;;;7.00;82.28;100634.41;103530;1309;22581;-58
2021/11/17 13:52:46;;;;;;;62.80;33.20;;;;;;;6.98;82.17;100635.98;103311;1313;22816;-63
2021/11/17 13:55:22;;;;;;;69.50;32.00;;;;;;;6.97;82.23;100640.00;103248;1314;22618;-60
2021/11/17 13:57:55;;;;;;;63.80;30.20;;;;;;;6.96;81.93;100641.23;105615;1313;22760;-60
2021/11/17 14:00:27;;;;;;;59.30;28.60;;;;;;;6.95;81.99;100638.82;103477;1313;24334;-61
2021/11/17 14:02:59;;;;;;;61.20;30.10;;;;;;;6.94;81.93;100638.42;104146;1306;25545;-60
2021/11/17 14:05:31;;;;;;;61.20;29.50;;;;;;;6.93;81.93;100637.49;103220;1309;24323;-60
2021/11/17 14:08:04;;;;;;;65.00;29.80;;;;;;;6.93;82.08;100645.04;103180;1309;22577;-61
2021/11/17 14:10:36;;;;;;;63.60;29.70;;;;;;;6.93;82.03;100650.99;103578;1308;22710;-60
2021/11/17 14:13:07;;;;;;;60.70;29.70;;;;;;;6.92;81.89;100648.95;103327;1311;22586;-60
2021/11/17 14:15:40;;;;;;;62.80;30.40;;;;;;;6.91;81.92;100636.92;103197;1309;22586;-60
2021/11/17 14:18:14;;;;;;;62.90;29.70;;;;;;;6.90;81.95;100631.33;103204;1309;23150;-58
2021/11/17 14:20:47;;;;;;;64.30;30.30;;;;;;;6.90;81.78;100632.77;103215;1312;22617;-62
2021/11/17 14:23:18;;;;;;;66.70;31.80;;;;;;;6.89;81.56;100640.02;103514;1308;22600;-58
2021/11/17 14:25:50;;;;;;;65.30;30.20;;;;;;;6.89;81.70;100640.89;103139;1309;22799;-61
2021/11/17 14:28:23;;;;;;;62.00;29.90;;;;;;;6.88;81.57;100646.38;103075;1311;22597;-62
2021/11/17 14:30:59;;;;;;;64.60;31.80;;;;;;;6.87;81.57;100649.27;103283;1308;22635;-62
2021/11/17 14:33:33;;;;;;;62.40;30.80;;;;;;;6.88;81.56;100646.81;103009;1309;22658;-62
2021/11/17 14:36:07;;;;;;;61.80;29.20;;;;;;;6.87;81.58;100647.59;103457;1313;22577;-62